createdAt,value
2023-01-29T00:00:53.312Z,14.10
2023-01-29T00:03:57.403Z,12.60
2023-01-29T00:06:59.582Z,14.60
2023-01-29T00:10:04.315Z,13.00
2023-01-29T00:13:04.310Z,14.40
2023-01-29T00:16:08.354Z,14.80
2023-01-29T00:19:08.338Z,16.60
2023-01-29T00:22:03.516Z,14.60
2023-01-29T00:25:07.508Z,15.60
2023-01-29T00:28:08.374Z,16.10
2023-01-29T00:31:09.510Z,12.80
2023-01-29T00:34:10.402Z,10.50
2023-01-29T00:37:14.557Z,14.50
2023-01-29T00:40:14.542Z,14.80
2023-01-29T00:43:34.366Z,14.00
2023-01-29T00:46:29.557Z,15.70
2023-01-29T00:49:17.399Z,15.20
2023-01-29T00:52:32.385Z,12.90
2023-01-29T00:55:32.468Z,14.40
2023-01-29T00:58:40.440Z,10.50
2023-01-29T01:02:03.451Z,15.20
2023-01-29T01:05:03.378Z,15.80
2023-01-29T01:08:08.452Z,14.40
2023-01-29T01:11:13.455Z,14.70
2023-01-29T01:14:16.447Z,14.30
2023-01-29T01:17:18.998Z,16.40
2023-01-29T01:20:21.517Z,14.70
2023-01-29T01:23:22.449Z,15.00
2023-01-29T01:26:25.834Z,14.90
2023-01-29T01:29:25.452Z,13.80
2023-01-29T01:32:26.455Z,15.00
2023-01-29T01:35:32.501Z,14.10
2023-01-29T01:38:35.499Z,14.00
2023-01-29T01:41:38.835Z,14.70
2023-01-29T01:45:12.715Z,13.30
2023-01-29T01:48:43.518Z,12.80
2023-01-29T01:51:45.475Z,13.40
2023-01-29T01:54:45.506Z,14.10
2023-01-29T01:57:46.498Z,14.60
2023-01-29T02:00:48.530Z,12.80
2023-01-29T02:07:31.931Z,12.60
2023-01-29T02:10:32.541Z,14.20
2023-01-29T02:13:34.544Z,12.00
2023-01-29T02:16:35.535Z,13.80
2023-01-29T02:19:54.786Z,13.80
2023-01-29T02:23:29.921Z,12.60
2023-01-29T02:26:53.597Z,12.70
2023-01-29T02:30:06.648Z,12.70
2023-01-29T02:33:18.581Z,11.30
2023-01-29T02:36:43.651Z,12.30
2023-01-29T02:39:45.308Z,12.30
2023-01-29T02:42:53.570Z,12.50
2023-01-29T02:46:20.584Z,12.30
2023-01-29T02:49:44.558Z,12.00
2023-01-29T02:53:22.591Z,11.60
2023-01-29T02:56:30.676Z,13.10
2023-01-29T02:59:47.117Z,13.00
2023-01-29T03:03:10.898Z,13.70
2023-01-29T03:06:24.662Z,13.40
2023-01-29T03:09:53.648Z,13.10
2023-01-29T03:12:56.553Z,13.40
2023-01-29T03:16:07.786Z,11.50
2023-01-29T03:19:17.660Z,10.90
2023-01-29T03:22:33.634Z,13.30
2023-01-29T03:25:54.908Z,12.90
2023-01-29T03:29:16.149Z,13.10
2023-01-29T03:32:17.713Z,13.40
2023-01-29T03:35:19.945Z,13.40
2023-01-29T03:38:24.109Z,12.70
2023-01-29T03:41:31.884Z,12.50
2023-01-29T03:44:53.708Z,12.80
2023-01-29T03:48:12.820Z,11.80
2023-01-29T03:51:44.772Z,11.30
2023-01-29T03:54:55.765Z,12.00
2023-01-29T03:58:08.682Z,11.30
2023-01-29T04:01:24.949Z,13.80
2023-01-29T04:04:37.790Z,14.50
2023-01-29T04:07:39.726Z,13.80
2023-01-29T04:10:41.734Z,14.00
2023-01-29T04:13:43.836Z,13.00
2023-01-29T04:16:48.764Z,13.20
2023-01-29T04:20:05.999Z,12.30
2023-01-29T04:23:05.737Z,12.00
2023-01-29T04:26:12.860Z,12.50
2023-01-29T04:29:29.987Z,12.90
2023-01-29T04:33:20.779Z,12.40
2023-01-29T04:36:39.794Z,13.40
2023-01-29T04:39:42.721Z,15.00
2023-01-29T04:42:56.824Z,13.30
2023-01-29T04:46:15.793Z,13.40
2023-01-29T04:49:31.803Z,13.50
2023-01-29T04:52:46.799Z,13.80
2023-01-29T04:55:57.789Z,13.40
2023-01-29T04:59:02.787Z,13.80
2023-01-29T05:02:04.956Z,13.50
2023-01-29T05:05:04.800Z,12.50
2023-01-29T05:08:13.180Z,13.50
2023-01-29T05:11:14.847Z,12.30
2023-01-29T05:14:16.980Z,15.00
2023-01-29T05:17:20.837Z,11.20
2023-01-29T05:20:23.979Z,14.00
2023-01-29T05:23:34.453Z,13.20
2023-01-29T05:26:53.045Z,12.80
2023-01-29T05:29:59.667Z,14.00
2023-01-29T05:33:15.254Z,12.80
2023-01-29T05:36:16.464Z,12.90
2023-01-29T05:39:17.696Z,14.70
2023-01-29T05:42:18.935Z,11.10
2023-01-29T05:45:21.198Z,13.20
2023-01-29T05:48:22.218Z,13.70
2023-01-29T05:51:24.906Z,12.10
2023-01-29T05:57:21.105Z,13.90
2023-01-29T06:00:20.907Z,13.20
2023-01-29T06:03:22.915Z,14.20
2023-01-29T06:06:25.941Z,14.50
2023-01-29T06:09:30.189Z,14.40
2023-01-29T06:12:32.048Z,13.80
2023-01-29T06:15:34.099Z,14.70
2023-01-29T06:18:29.173Z,14.20
2023-01-29T06:21:29.924Z,14.60
2023-01-29T06:24:34.091Z,13.70
2023-01-29T06:27:33.953Z,14.80
2023-01-29T06:30:35.297Z,15.60
2023-01-29T06:33:35.990Z,16.20
2023-01-29T06:36:35.999Z,16.20
2023-01-29T06:39:36.838Z,16.40
2023-01-29T06:42:46.166Z,16.60
2023-01-29T06:45:49.009Z,17.70
2023-01-29T06:48:52.209Z,19.90
2023-01-29T06:51:53.995Z,18.10
2023-01-29T06:54:56.045Z,17.90
2023-01-29T06:58:00.235Z,17.90
2023-01-29T07:01:00.251Z,17.80
2023-01-29T07:04:07.000Z,16.30
2023-01-29T07:07:08.174Z,14.70
2023-01-29T07:10:09.311Z,14.60
2023-01-29T07:13:12.080Z,14.60
2023-01-29T07:16:14.088Z,17.10
2023-01-29T07:19:17.572Z,14.20
2023-01-29T07:22:19.099Z,16.10
2023-01-29T07:25:22.035Z,14.60
2023-01-29T07:28:23.069Z,14.50
2023-01-29T07:31:26.086Z,15.90
2023-01-29T07:34:27.186Z,15.80
2023-01-29T07:37:27.077Z,16.60
2023-01-29T07:40:31.279Z,14.70
2023-01-29T07:43:35.152Z,15.90
2023-01-29T07:46:38.448Z,16.00
2023-01-29T07:49:39.101Z,16.60
2023-01-29T07:52:40.097Z,14.50
2023-01-29T07:55:42.211Z,17.60
2023-01-29T07:58:44.129Z,17.60
2023-01-29T08:01:48.540Z,14.50
2023-01-29T08:04:51.126Z,15.50
2023-01-29T08:08:05.724Z,16.70
2023-01-29T08:11:07.140Z,16.40
2023-01-29T08:14:10.127Z,16.30
2023-01-29T08:17:11.216Z,15.50
2023-01-29T08:20:12.121Z,14.70
2023-01-29T08:23:19.137Z,15.40
2023-01-29T08:26:21.186Z,16.10
2023-01-29T08:29:24.088Z,17.50
2023-01-29T08:32:44.248Z,17.20
2023-01-29T08:35:44.182Z,16.70
2023-01-29T08:38:45.152Z,18.20
2023-01-29T08:41:50.225Z,18.10
2023-01-29T08:44:53.199Z,16.00
2023-01-29T08:48:03.136Z,17.00
2023-01-29T08:51:07.189Z,15.50
2023-01-29T08:54:08.161Z,16.70
2023-01-29T08:57:08.316Z,16.50
2023-01-29T09:00:09.409Z,17.70
2023-01-29T09:03:09.416Z,17.00
2023-01-29T09:06:11.196Z,18.10
2023-01-29T09:09:12.233Z,17.10
2023-01-29T09:12:13.230Z,15.60
2023-01-29T09:15:14.174Z,16.20
2023-01-29T09:18:17.299Z,15.70
2023-01-29T09:21:17.428Z,19.10
2023-01-29T09:24:17.237Z,17.80
2023-01-29T09:27:17.251Z,18.90
2023-01-29T09:30:19.326Z,18.10
2023-01-29T09:33:21.519Z,18.00
2023-01-29T09:36:22.377Z,20.40
2023-01-29T09:39:23.329Z,20.00
2023-01-29T09:42:36.524Z,18.20
2023-01-29T09:48:38.299Z,16.60
2023-01-29T09:51:56.368Z,18.80
2023-01-29T09:55:14.711Z,17.80
2023-01-29T09:58:27.301Z,19.60
2023-01-29T10:01:47.430Z,19.50
2023-01-29T10:04:58.272Z,19.60
2023-01-29T10:08:17.298Z,17.40
2023-01-29T10:11:32.312Z,19.30
2023-01-29T10:14:57.427Z,18.00
2023-01-29T10:18:04.394Z,17.90
2023-01-29T10:21:29.419Z,16.20
2023-01-29T10:24:43.330Z,17.20
2023-01-29T10:27:47.403Z,16.40
2023-01-29T10:30:51.445Z,16.20
2023-01-29T10:34:03.465Z,15.80
2023-01-29T10:37:03.441Z,15.80
2023-01-29T10:40:03.433Z,16.50
2023-01-29T10:43:08.405Z,17.90
2023-01-29T10:46:14.713Z,15.90
2023-01-29T10:49:55.430Z,15.90
2023-01-29T10:53:03.487Z,14.10
2023-01-29T10:56:23.695Z,15.30
2023-01-29T10:59:55.418Z,14.10
2023-01-29T11:02:59.532Z,18.50
2023-01-29T11:06:14.706Z,13.40
2023-01-29T11:09:57.443Z,14.10
2023-01-29T11:12:59.483Z,15.40
2023-01-29T11:15:59.607Z,16.10
2023-01-29T11:19:11.758Z,17.40
2023-01-29T11:22:15.504Z,14.80
2023-01-29T11:25:30.426Z,15.50
2023-01-29T11:28:34.432Z,15.60
2023-01-29T11:31:49.490Z,13.90
2023-01-29T11:34:49.483Z,14.40
2023-01-29T11:37:51.482Z,14.40
2023-01-29T11:40:52.457Z,13.20
2023-01-29T11:43:56.494Z,14.00
2023-01-29T11:46:58.187Z,13.30
2023-01-29T11:50:05.514Z,12.70
2023-01-29T11:53:05.572Z,12.50
2023-01-29T11:56:06.507Z,14.50
2023-01-29T11:59:10.489Z,13.70
2023-01-29T12:02:17.471Z,13.70
2023-01-29T12:05:30.591Z,10.80
2023-01-29T12:08:30.530Z,9.30
2023-01-29T12:11:46.596Z,11.80
2023-01-29T12:14:47.562Z,12.20
2023-01-29T12:17:49.491Z,12.00
2023-01-29T12:21:03.494Z,10.20
2023-01-29T12:24:08.531Z,10.90
2023-01-29T12:27:32.618Z,10.70
2023-01-29T12:30:38.582Z,9.70
2023-01-29T12:33:50.720Z,10.60
2023-01-29T12:37:08.525Z,10.70
2023-01-29T12:40:08.646Z,10.30
2023-01-29T12:43:09.591Z,9.80
2023-01-29T12:46:09.594Z,9.50
2023-01-29T12:49:13.578Z,11.30
2023-01-29T12:52:19.584Z,8.90
2023-01-29T12:55:32.604Z,9.80
2023-01-29T12:58:44.784Z,10.70
2023-01-29T13:01:50.648Z,10.10
2023-01-29T13:05:00.801Z,9.50
2023-01-29T13:08:04.968Z,9.40
2023-01-29T13:11:10.465Z,9.20
2023-01-29T13:14:18.064Z,10.10
2023-01-29T13:17:30.620Z,8.70
2023-01-29T13:20:35.617Z,9.70
2023-01-29T13:23:41.618Z,9.30
2023-01-29T13:26:43.710Z,9.60
2023-01-29T13:29:43.736Z,9.40
2023-01-29T13:32:47.346Z,10.20
2023-01-29T13:36:11.663Z,8.60
2023-01-29T13:39:40.704Z,9.30
2023-01-29T13:43:01.677Z,9.90
2023-01-29T13:46:02.839Z,8.90
2023-01-29T13:49:06.830Z,10.80
2023-01-29T13:52:06.646Z,10.00
2023-01-29T13:55:36.706Z,11.20
2023-01-29T13:58:46.895Z,12.20
2023-01-29T14:02:01.705Z,12.70
2023-01-29T14:05:02.758Z,14.40
2023-01-29T14:08:05.714Z,13.90
2023-01-29T14:11:47.727Z,12.50
2023-01-29T14:15:09.553Z,12.70
2023-01-29T14:18:32.773Z,13.40
2023-01-29T14:21:38.767Z,12.10
2023-01-29T14:24:48.752Z,12.80
2023-01-29T14:27:49.728Z,12.60
2023-01-29T14:30:52.816Z,12.80
2023-01-29T14:33:54.730Z,12.30
2023-01-29T14:37:01.764Z,11.50
2023-01-29T14:40:08.736Z,12.30
2023-01-29T14:43:16.773Z,12.10
2023-01-29T14:46:55.898Z,12.40
2023-01-29T14:50:01.787Z,12.20
2023-01-29T14:53:03.760Z,12.50
2023-01-29T14:56:16.011Z,11.20
2023-01-29T14:59:25.753Z,13.00
2023-01-29T15:02:39.838Z,14.30
2023-01-29T15:05:41.942Z,15.20
2023-01-29T15:08:47.806Z,20.00
2023-01-29T15:11:58.828Z,15.40
2023-01-29T15:15:27.455Z,16.30
2023-01-29T15:18:39.822Z,15.80
2023-01-29T15:21:40.243Z,14.30
2023-01-29T15:24:39.794Z,12.90
2023-01-29T15:27:42.835Z,13.90
2023-01-29T15:30:45.920Z,14.70
2023-01-29T15:33:55.903Z,13.50
2023-01-29T15:36:56.983Z,13.60
2023-01-29T15:40:12.991Z,13.90
2023-01-29T15:44:39.500Z,15.70
2023-01-29T15:47:26.943Z,15.50
2023-01-29T15:50:26.908Z,12.70
2023-01-29T15:53:29.862Z,12.60
2023-01-29T15:56:35.870Z,13.00
2023-01-29T15:59:45.942Z,9.10
2023-01-29T16:02:56.927Z,10.10
2023-01-29T16:05:56.874Z,9.20
2023-01-29T16:09:01.984Z,10.50
2023-01-29T16:12:04.926Z,11.20
2023-01-29T16:15:04.947Z,10.30
2023-01-29T16:18:05.946Z,12.20
2023-01-29T16:21:06.970Z,11.20
2023-01-29T16:24:16.038Z,11.40
2023-01-29T16:27:21.028Z,10.80
2023-01-29T16:30:26.020Z,10.90
2023-01-29T16:33:26.938Z,9.40
2023-01-29T16:36:31.943Z,9.40
2023-01-29T16:39:34.006Z,9.60
2023-01-29T16:42:45.002Z,10.10
2023-01-29T16:45:46.938Z,9.40
2023-01-29T16:48:48.005Z,9.90
2023-01-29T16:51:53.093Z,9.30
2023-01-29T16:54:55.065Z,8.40
2023-01-29T16:57:56.080Z,8.70
2023-01-29T17:00:57.004Z,8.70
2023-01-29T17:03:58.052Z,8.70
2023-01-29T17:07:00.982Z,10.10
2023-01-29T17:10:05.254Z,9.10
2023-01-29T17:13:11.005Z,9.00
2023-01-29T17:16:16.156Z,7.80
2023-01-29T17:19:24.130Z,7.70
2023-01-29T17:22:17.147Z,7.70
2023-01-29T17:25:18.367Z,8.40
2023-01-29T17:28:20.041Z,7.00
2023-01-29T17:31:24.149Z,8.20
2023-01-29T17:34:25.059Z,7.50
2023-01-29T17:37:28.102Z,6.60
2023-01-29T17:40:54.273Z,7.40
2023-01-29T17:43:57.185Z,7.90
2023-01-29T17:46:57.183Z,6.80
2023-01-29T17:49:57.087Z,6.80
2023-01-29T17:52:57.305Z,7.60
2023-01-29T17:56:01.075Z,7.60
2023-01-29T17:59:03.108Z,8.00
2023-01-29T18:02:03.187Z,8.40
2023-01-29T18:05:03.105Z,8.50
2023-01-29T18:08:04.078Z,8.90
2023-01-29T18:11:05.070Z,8.50
2023-01-29T18:14:13.614Z,8.00
2023-01-29T18:17:22.110Z,8.50
2023-01-29T18:20:51.436Z,7.50
2023-01-29T18:23:52.139Z,7.00
2023-01-29T18:29:57.253Z,7.30
2023-01-29T18:33:00.247Z,7.10
2023-01-29T18:36:04.206Z,7.70
2023-01-29T18:39:05.256Z,8.50
2023-01-29T18:42:08.194Z,8.00
2023-01-29T18:45:10.572Z,7.10
2023-01-29T18:48:11.137Z,7.50
2023-01-29T18:51:11.679Z,9.30
2023-01-29T18:54:12.150Z,7.40
2023-01-29T18:57:16.655Z,8.20
2023-01-29T19:00:36.144Z,8.00
2023-01-29T19:09:41.571Z,8.00
2023-01-29T19:12:44.215Z,9.10
2023-01-29T19:15:44.312Z,8.30
2023-01-29T19:18:37.570Z,9.90
2023-01-29T19:21:42.266Z,8.80
2023-01-29T19:24:45.289Z,8.00
2023-01-29T19:27:45.233Z,8.50
2023-01-29T19:30:45.487Z,8.40
2023-01-29T19:33:46.446Z,9.80
2023-01-29T19:36:47.376Z,10.30
2023-01-29T19:39:50.196Z,6.90
2023-01-29T19:42:51.278Z,7.50
2023-01-29T19:45:54.262Z,7.70
2023-01-29T19:52:21.325Z,6.90
2023-01-29T19:55:22.568Z,6.60
2023-01-29T19:58:32.341Z,6.30
2023-01-29T20:01:37.679Z,6.90
2023-01-29T20:04:38.530Z,6.70
2023-01-29T20:07:44.829Z,7.30
2023-01-29T20:10:47.372Z,8.10
2023-01-29T20:13:54.466Z,7.10
2023-01-29T20:17:16.295Z,6.80
2023-01-29T20:20:30.978Z,7.80
2023-01-29T20:24:01.339Z,7.40
2023-01-29T20:27:07.383Z,8.10
2023-01-29T20:34:28.075Z,7.90
2023-01-29T20:38:09.000Z,7.90
2023-01-29T20:41:37.591Z,8.20
2023-01-29T20:48:36.528Z,7.60
2023-01-29T20:52:01.341Z,5.70
2023-01-29T20:55:07.452Z,5.50
2023-01-29T20:58:21.342Z,6.00
2023-01-29T21:05:33.792Z,7.50
2023-01-29T21:08:52.111Z,6.80
2023-01-29T21:15:47.422Z,7.00
2023-01-29T21:18:53.437Z,8.90
2023-01-29T21:21:56.599Z,6.30
2023-01-29T21:24:59.436Z,7.30
2023-01-29T21:27:52.545Z,6.30
2023-01-29T21:30:53.459Z,6.30
2023-01-29T21:33:57.194Z,5.80
2023-01-29T21:36:58.422Z,6.80
2023-01-29T21:39:58.437Z,6.20
2023-01-29T21:43:17.414Z,6.70
2023-01-29T21:46:19.546Z,6.60
2023-01-29T21:49:20.394Z,7.20
2023-01-29T21:52:20.898Z,7.00
2023-01-29T21:55:27.693Z,7.10
2023-01-29T21:58:28.578Z,7.00
2023-01-29T22:01:48.575Z,6.90
2023-01-29T22:05:02.415Z,5.50
2023-01-29T22:08:12.519Z,6.40
2023-01-29T22:11:20.474Z,6.30
2023-01-29T22:14:24.523Z,6.30
2023-01-29T22:17:26.815Z,5.60
2023-01-29T22:20:26.534Z,6.00
2023-01-29T22:23:27.553Z,5.50
2023-01-29T22:26:27.553Z,4.90
2023-01-29T22:29:27.574Z,5.60
2023-01-29T22:32:28.701Z,5.60
2023-01-29T22:35:28.504Z,4.70
2023-01-29T22:38:29.951Z,5.90
2023-01-29T22:41:32.841Z,4.80
2023-01-29T22:44:33.764Z,6.10
2023-01-29T22:47:33.522Z,6.90
2023-01-29T22:50:34.560Z,6.10
2023-01-29T22:53:35.144Z,5.80
2023-01-29T22:56:37.565Z,6.00
2023-01-29T22:59:37.543Z,5.00
2023-01-29T23:02:30.716Z,5.40
2023-01-29T23:05:30.570Z,6.20
2023-01-29T23:08:31.558Z,5.20
2023-01-29T23:11:35.593Z,6.00
2023-01-29T23:14:38.785Z,6.20
2023-01-29T23:17:42.684Z,4.90
2023-01-29T23:20:43.619Z,5.00
2023-01-29T23:23:45.200Z,4.80
2023-01-29T23:27:04.644Z,4.90
2023-01-29T23:30:07.632Z,5.00
2023-01-29T23:33:12.232Z,4.40
2023-01-29T23:36:13.632Z,4.30
2023-01-29T23:39:16.468Z,5.00
2023-01-29T23:42:24.917Z,4.90
2023-01-29T23:45:25.680Z,5.00
2023-01-29T23:48:26.782Z,4.20
2023-01-29T23:54:29.812Z,3.80
2023-01-29T23:57:30.349Z,4.60
